Time;durP1;ratioP1;P1;durP2;ratioP2;P2;SDS_P1;SDS_P2;PMS_P1;PMS_P2;Temp;Humidity;BMP_temperature;BMP_pressure;BME280_temperature;BME280_humidity;BME280_pressure;Samples;Min_cycle;Max_cycle;Signal;HPM_P1;HPM_P2
2022/05/24 00:00:10;;;;;;;3.27;1.90;;;19.90;95.70;;;;;;5050929;28;20208;-77
2022/05/24 00:02:38;;;;;;;4.50;2.00;;;19.90;95.60;;;;;;5063729;28;20202;-76
2022/05/24 00:05:05;;;;;;;4.00;1.80;;;19.80;95.80;;;;;;5058016;28;20250;-76
2022/05/24 00:07:32;;;;;;;3.37;2.00;;;19.80;96.20;;;;;;5050698;28;20208;-76
2022/05/24 00:10:00;;;;;;;2.70;2.10;;;19.80;96.00;;;;;;5050313;28;20262;-75
2022/05/24 00:12:26;;;;;;;4.10;2.30;;;19.70;96.00;;;;;;5050358;28;20325;-75
2022/05/24 00:17:39;;;;;;;2.87;1.80;;;19.80;96.00;;;;;;5054828;28;20211;-74
2022/05/24 00:20:07;;;;;;;2.00;1.90;;;19.70;96.10;;;;;;5050948;28;20655;-75
2022/05/24 00:22:33;;;;;;;2.40;2.20;;;19.70;96.30;;;;;;5069317;28;20623;-74
2022/05/24 00:25:01;;;;;;;3.20;1.90;;;19.70;96.30;;;;;;5069527;28;20216;-75
2022/05/24 00:27:29;;;;;;;3.40;2.07;;;19.70;96.40;;;;;;5069844;28;20208;-75
2022/05/24 00:29:55;;;;;;;3.70;2.10;;;19.70;96.50;;;;;;5070271;28;20207;-75
2022/05/24 00:32:22;;;;;;;3.10;2.40;;;19.70;96.40;;;;;;5054799;28;20250;-75
2022/05/24 00:34:51;;;;;;;2.20;2.00;;;19.70;96.50;;;;;;5049979;28;20204;-75
2022/05/24 00:37:20;;;;;;;4.30;2.00;;;19.60;96.50;;;;;;5050238;28;20246;-77
2022/05/24 00:39:47;;;;;;;2.77;2.30;;;19.60;96.60;;;;;;5049644;28;20204;-78
2022/05/24 00:42:18;;;;;;;4.10;2.30;;;19.60;96.70;;;;;;5049764;28;20643;-76
2022/05/24 00:44:50;;;;;;;5.23;2.17;;;19.60;96.70;;;;;;5049574;28;20708;-76
2022/05/24 00:47:23;;;;;;;2.10;2.00;;;19.40;97.00;;;;;;5062508;28;20205;-76
2022/05/24 00:49:56;;;;;;;2.43;2.10;;;19.50;96.90;;;;;;5051017;28;20238;-76
2022/05/24 00:52:28;;;;;;;4.27;2.13;;;19.50;97.00;;;;;;5049929;28;20199;-76
2022/05/24 00:54:55;;;;;;;4.13;2.00;;;19.50;97.10;;;;;;5049631;28;20201;-76
2022/05/24 00:57:28;;;;;;;3.00;1.93;;;19.40;97.20;;;;;;5057500;28;20215;-76
2022/05/24 01:00:01;;;;;;;2.00;1.87;;;19.50;97.20;;;;;;5059658;28;20200;-77
2022/05/24 01:02:28;;;;;;;2.30;2.10;;;19.40;97.50;;;;;;5050769;28;20670;-77
2022/05/24 01:04:57;;;;;;;3.63;1.90;;;19.50;97.50;;;;;;5049405;28;20208;-75
2022/05/24 01:07:24;;;;;;;3.33;2.20;;;19.50;97.50;;;;;;5049675;28;20208;-76
2022/05/24 01:09:55;;;;;;;2.97;2.00;;;19.50;97.60;;;;;;5049085;28;20220;-75
2022/05/24 01:12:25;;;;;;;3.27;1.97;;;19.50;97.80;;;;;;5049465;28;20192;-74
2022/05/24 01:14:54;;;;;;;4.40;2.40;;;19.50;97.90;;;;;;5067343;28;20203;-74
2022/05/24 01:17:20;;;;;;;2.00;1.80;;;19.50;97.70;;;;;;5056266;28;20445;-73
2022/05/24 01:19:49;;;;;;;7.20;2.17;;;19.50;97.90;;;;;;5058868;28;20253;-75
2022/05/24 01:22:36;;;;;;;1.97;1.87;;;19.50;97.80;;;;;;5062309;28;20249;-75
2022/05/24 01:25:09;;;;;;;3.30;2.57;;;19.50;97.90;;;;;;5067482;28;20188;-73
2022/05/24 01:27:38;;;;;;;2.13;1.90;;;19.50;98.00;;;;;;5069070;28;20199;-74
2022/05/24 01:30:05;;;;;;;2.23;2.07;;;19.40;98.10;;;;;;5068296;28;20211;-75
2022/05/24 01:38:05;;;;;;;3.70;2.20;;;19.40;98.20;;;;;;5068292;28;20194;-75
2022/05/24 01:40:32;;;;;;;7.23;2.17;;;19.50;98.50;;;;;;5068403;28;20285;-75
2022/05/24 01:42:59;;;;;;;2.20;2.00;;;19.50;98.50;;;;;;5068566;28;20211;-74
2022/05/24 01:45:30;;;;;;;3.13;2.07;;;19.40;98.60;;;;;;5067791;28;20200;-74
2022/05/24 01:48:02;;;;;;;1.97;1.87;;;19.50;98.80;;;;;;5050638;28;20261;-79
2022/05/24 01:50:29;;;;;;;2.40;2.20;;;19.50;98.70;;;;;;5048935;28;20258;-79
2022/05/24 01:53:00;;;;;;;2.10;1.83;;;19.50;98.70;;;;;;5062131;28;20219;-79
2022/05/24 01:55:31;;;;;;;2.73;2.53;;;19.50;98.90;;;;;;5048342;28;20235;-79
2022/05/24 01:58:02;;;;;;;3.10;1.80;;;19.50;99.00;;;;;;5048820;28;20200;-79
2022/05/24 02:00:29;;;;;;;2.93;2.10;;;19.40;99.20;;;;;;5048736;28;20196;-80
2022/05/24 02:02:56;;;;;;;4.53;2.20;;;19.40;99.20;;;;;;5048657;28;20214;-80
2022/05/24 02:05:31;;;;;;;2.17;1.97;;;19.50;99.10;;;;;;5048527;28;20208;-80
2022/05/24 02:07:57;;;;;;;2.50;2.30;;;19.40;99.20;;;;;;5048275;28;20249;-80
2022/05/24 02:10:24;;;;;;;3.87;2.03;;;19.40;99.10;;;;;;5048527;28;20258;-81
2022/05/24 02:12:53;;;;;;;2.43;1.97;;;19.50;99.10;;;;;;5049787;28;20290;-75
2022/05/24 02:15:25;;;;;;;2.10;2.00;;;19.40;99.20;;;;;;5067216;28;20199;-75
2022/05/24 02:17:55;;;;;;;2.23;2.13;;;19.40;99.10;;;;;;5050756;28;20266;-74
2022/05/24 02:20:29;;;;;;;3.43;2.40;;;19.40;99.30;;;;;;5051185;28;20211;-75
2022/05/24 02:22:56;;;;;;;2.80;2.20;;;19.40;99.50;;;;;;5067874;28;20297;-75
2022/05/24 02:25:30;;;;;;;5.20;2.60;;;19.40;99.70;;;;;;5068193;28;20203;-75
2022/05/24 02:27:57;;;;;;;4.17;2.50;;;19.40;99.70;;;;;;5067878;28;20199;-75
2022/05/24 02:30:27;;;;;;;2.63;2.00;;;19.40;99.60;;;;;;5068109;28;20265;-74
2022/05/24 02:32:54;;;;;;;7.03;2.60;;;19.40;99.60;;;;;;5067944;28;20265;-76
2022/05/24 02:35:21;;;;;;;2.47;2.27;;;19.40;99.70;;;;;;5067995;28;20215;-76
2022/05/24 02:37:47;;;;;;;3.87;2.10;;;19.40;99.60;;;;;;5067727;28;20203;-76
2022/05/24 02:42:58;;;;;;;2.50;2.30;;;19.40;99.90;;;;;;5060371;28;20218;-76
2022/05/24 02:45:27;;;;;;;3.03;2.40;;;19.30;99.90;;;;;;5048969;28;20200;-76
2022/05/24 02:47:53;;;;;;;2.10;2.00;;;19.40;99.90;;;;;;5058789;28;20260;-76
2022/05/24 02:50:21;;;;;;;2.40;2.13;;;19.30;99.90;;;;;;5067318;28;20195;-76
2022/05/24 02:52:48;;;;;;;5.33;2.30;;;19.30;99.90;;;;;;5067415;28;20207;-76
2022/05/24 02:55:15;;;;;;;4.70;2.80;;;19.20;99.90;;;;;;5064579;28;20268;-75
2022/05/24 02:57:42;;;;;;;5.17;2.57;;;19.20;99.90;;;;;;5047715;28;20204;-76
2022/05/24 03:00:14;;;;;;;3.27;2.77;;;19.20;99.90;;;;;;5047812;28;20208;-75
2022/05/24 03:02:42;;;;;;;3.10;2.30;;;19.20;99.90;;;;;;5047814;28;20188;-76
2022/05/24 03:05:12;;;;;;;2.50;2.30;;;19.10;99.90;;;;;;5049106;28;20678;-75
2022/05/24 03:10:22;;;;;;;2.87;2.20;;;19.00;99.90;;;;;;5067558;28;20686;-74
2022/05/24 03:15:34;;;;;;;2.83;2.63;;;18.90;99.90;;;;;;5067448;28;20284;-73
2022/05/24 03:18:02;;;;;;;3.53;2.80;;;18.90;99.90;;;;;;5058872;28;20207;-73
2022/05/24 03:20:29;;;;;;;2.70;2.50;;;18.80;99.90;;;;;;5057088;28;20669;-73
2022/05/24 03:22:56;;;;;;;3.20;2.90;;;18.80;99.90;;;;;;5065217;28;20203;-73
2022/05/24 03:25:22;;;;;;;2.73;2.53;;;18.80;99.90;;;;;;5063864;28;20212;-74
2022/05/24 03:27:50;;;;;;;2.60;2.40;;;18.80;99.90;;;;;;5065298;28;20620;-74
2022/05/24 03:30:18;;;;;;;4.50;2.77;;;18.80;99.90;;;;;;5065064;28;20207;-74
2022/05/24 03:32:45;;;;;;;5.87;3.33;;;18.80;99.90;;;;;;5065197;28;20214;-74
2022/05/24 03:35:13;;;;;;;5.50;3.00;;;18.70;99.90;;;;;;5060561;28;20259;-74
2022/05/24 03:37:40;;;;;;;3.40;3.10;;;18.70;99.90;;;;;;5045450;28;20289;-74
2022/05/24 03:40:08;;;;;;;3.97;3.17;;;18.70;99.90;;;;;;5045774;28;20242;-74
2022/05/24 03:42:36;;;;;;;4.70;3.20;;;18.70;99.90;;;;;;5045388;28;20673;-74
2022/05/24 03:45:04;;;;;;;3.23;2.60;;;18.70;99.90;;;;;;5045218;28;20216;-75
2022/05/24 03:47:31;;;;;;;3.20;3.00;;;18.60;99.90;;;;;;5049365;28;20232;-75
2022/05/24 03:49:57;;;;;;;3.47;3.17;;;18.60;99.90;;;;;;5045624;28;20212;-75
2022/05/24 03:52:26;;;;;;;3.00;2.90;;;18.60;99.90;;;;;;5052415;28;20613;-75
2022/05/24 03:54:52;;;;;;;4.37;3.13;;;18.50;99.90;;;;;;5065055;28;20503;-75
2022/05/24 04:00:05;;;;;;;4.27;3.30;;;18.50;99.90;;;;;;5059657;28;20594;-75
2022/05/24 04:02:32;;;;;;;6.00;3.03;;;18.50;99.90;;;;;;5052913;28;20232;-75
2022/05/24 04:04:58;;;;;;;4.97;3.23;;;18.50;99.90;;;;;;5057574;28;20199;-74
2022/05/24 04:07:26;;;;;;;3.50;3.20;;;18.50;99.90;;;;;;5070589;28;20252;-74
2022/05/24 04:09:53;;;;;;;4.97;3.50;;;18.40;99.90;;;;;;5069928;28;20229;-73
2022/05/24 04:12:19;;;;;;;3.17;2.97;;;18.40;99.90;;;;;;5070422;28;20208;-74
2022/05/24 04:14:46;;;;;;;3.80;3.27;;;18.40;99.90;;;;;;5053740;28;20636;-74
2022/05/24 04:17:13;;;;;;;3.93;3.53;;;18.50;99.90;;;;;;5058372;28;20679;-74
2022/05/24 04:19:39;;;;;;;5.20;3.20;;;18.50;99.90;;;;;;5058361;28;20211;-74
2022/05/24 04:22:06;;;;;;;5.13;3.57;;;18.40;99.90;;;;;;5061133;28;20200;-74
2022/05/24 04:24:34;;;;;;;3.70;3.40;;;18.40;99.90;;;;;;5058701;28;20650;-74
2022/05/24 04:27:01;;;;;;;3.53;3.23;;;18.50;99.90;;;;;;5062356;28;20273;-75
2022/05/24 04:29:27;;;;;;;4.40;4.00;;;18.50;99.90;;;;;;5058173;28;20200;-75
2022/05/24 04:31:54;;;;;;;3.60;3.40;;;18.10;99.90;;;;;;5059768;28;20204;-74
2022/05/24 04:34:20;;;;;;;5.00;3.90;;;17.90;99.90;;;;;;5060605;28;20280;-75
2022/05/24 04:36:47;;;;;;;4.10;3.70;;;17.80;99.90;;;;;;5057799;28;20215;-75
2022/05/24 04:39:15;;;;;;;4.43;3.57;;;17.90;99.90;;;;;;5062579;28;20256;-74
2022/05/24 04:44:35;;;;;;;4.60;3.83;;;18.10;99.90;;;;;;5017590;28;20346;-73
2022/05/24 04:47:08;;;;;;;5.27;4.43;;;18.00;99.90;;;;;;5063148;28;20219;-74
2022/05/24 04:49:35;;;;;;;4.07;3.77;;;17.80;99.90;;;;;;5060384;28;20198;-74
2022/05/24 04:52:02;;;;;;;4.50;4.20;;;17.70;99.90;;;;;;5056910;28;20196;-74
2022/05/24 04:54:28;;;;;;;4.87;4.27;;;17.40;99.90;;;;;;5057010;28;20254;-74
2022/05/24 04:56:56;;;;;;;4.90;4.40;;;17.30;99.90;;;;;;5059372;28;20220;-74
2022/05/24 04:59:23;;;;;;;5.50;4.40;;;17.30;99.90;;;;;;5060618;28;20184;-75
2022/05/24 05:01:51;;;;;;;5.23;4.83;;;17.10;99.90;;;;;;5058238;28;20254;-74
2022/05/24 05:04:18;;;;;;;4.90;4.50;;;17.20;99.90;;;;;;5058056;28;20596;-74
2022/05/24 05:06:45;;;;;;;4.23;3.90;;;16.90;99.90;;;;;;5060357;28;20204;-74
2022/05/24 05:09:12;;;;;;;4.23;4.00;;;16.90;99.90;;;;;;5061083;28;20212;-75
2022/05/24 05:11:39;;;;;;;4.80;4.47;;;16.90;99.90;;;;;;5056475;28;20200;-75
2022/05/24 05:14:08;;;;;;;5.20;4.90;;;16.90;99.90;;;;;;5055891;28;20223;-74
2022/05/24 05:16:36;;;;;;;5.57;5.17;;;16.80;99.90;;;;;;5060382;28;20196;-75
2022/05/24 05:19:03;;;;;;;5.70;5.20;;;16.70;99.90;;;;;;5059209;28;20309;-75
2022/05/24 05:21:31;;;;;;;6.60;6.10;;;16.80;99.90;;;;;;5056536;28;20208;-76
2022/05/24 05:23:57;;;;;;;6.00;5.60;;;16.50;99.90;;;;;;5056859;28;20294;-78
2022/05/24 05:26:24;;;;;;;6.73;6.23;;;16.40;99.90;;;;;;5056196;28;20199;-75
2022/05/24 05:28:51;;;;;;;5.77;5.27;;;16.50;99.90;;;;;;5058105;28;20203;-76
2022/05/24 05:31:22;;;;;;;6.17;5.60;;;16.70;99.90;;;;;;5061147;28;20239;-76
2022/05/24 05:33:50;;;;;;;6.13;5.73;;;16.60;99.90;;;;;;5047283;28;20659;-76
2022/05/24 05:36:17;;;;;;;6.17;5.77;;;16.60;99.90;;;;;;5047982;28;20200;-75
2022/05/24 05:38:46;;;;;;;6.23;5.83;;;16.70;99.90;;;;;;5052017;28;20819;-75
2022/05/24 05:41:14;;;;;;;6.37;5.73;;;16.60;99.90;;;;;;5057656;28;20232;-75
2022/05/24 05:43:41;;;;;;;6.27;5.77;;;16.70;99.90;;;;;;5059186;28;20679;-76
2022/05/24 05:46:10;;;;;;;5.53;5.13;;;16.70;99.90;;;;;;5056919;28;20748;-76
2022/05/24 05:48:39;;;;;;;5.70;5.30;;;16.80;99.90;;;;;;5058875;28;20204;-75
2022/05/24 05:51:07;;;;;;;5.90;5.50;;;16.90;99.90;;;;;;5058053;28;20258;-75
2022/05/24 05:53:34;;;;;;;5.47;5.07;;;16.90;99.90;;;;;;5056114;28;20727;-75
2022/05/24 05:56:04;;;;;;;7.03;5.70;;;17.00;99.90;;;;;;5058635;28;20691;-75
2022/05/24 05:58:31;;;;;;;4.83;4.53;;;17.00;99.90;;;;;;5056731;28;20743;-75
2022/05/24 06:01:00;;;;;;;5.00;4.50;;;17.00;99.90;;;;;;5055439;28;20203;-76
2022/05/24 06:03:27;;;;;;;5.10;4.70;;;17.00;99.90;;;;;;5058365;28;20209;-79
2022/05/24 06:05:55;;;;;;;5.07;4.60;;;17.10;99.90;;;;;;5056869;28;20331;-81
2022/05/24 06:08:22;;;;;;;4.77;4.43;;;17.20;99.90;;;;;;5053274;28;20197;-79
2022/05/24 06:10:48;;;;;;;4.03;3.63;;;17.20;99.90;;;;;;5058423;28;20207;-76
2022/05/24 06:13:15;;;;;;;4.20;3.90;;;17.20;99.90;;;;;;5058099;28;20200;-76
2022/05/24 06:15:42;;;;;;;4.20;3.90;;;17.20;99.90;;;;;;5057738;28;20227;-76
2022/05/24 06:18:08;;;;;;;3.60;3.40;;;17.20;99.90;;;;;;5054756;28;20208;-76
2022/05/24 06:20:35;;;;;;;3.60;3.40;;;17.20;99.90;;;;;;5055563;28;20208;-76
2022/05/24 06:23:03;;;;;;;3.90;3.60;;;17.20;99.90;;;;;;5057342;28;20243;-75
2022/05/24 06:25:31;;;;;;;3.50;3.30;;;17.20;99.90;;;;;;5054270;28;20200;-75
2022/05/24 06:27:59;;;;;;;3.10;2.90;;;17.30;99.90;;;;;;5057325;28;20216;-76
2022/05/24 06:30:26;;;;;;;3.43;3.13;;;17.30;99.90;;;;;;5056113;28;20200;-76
2022/05/24 06:32:53;;;;;;;4.90;2.80;;;17.30;99.90;;;;;;5054564;28;20200;-75
2022/05/24 06:35:21;;;;;;;3.10;2.90;;;17.30;99.90;;;;;;5053828;28;20232;-75
2022/05/24 06:37:48;;;;;;;3.30;3.00;;;17.50;99.90;;;;;;5055307;28;20740;-76
2022/05/24 06:40:19;;;;;;;2.60;2.43;;;17.40;99.90;;;;;;5056205;28;20318;-76
2022/05/24 06:42:47;;;;;;;2.97;2.77;;;17.40;99.90;;;;;;5057145;28;20200;-76
2022/05/24 06:45:14;;;;;;;2.40;2.30;;;17.40;99.90;;;;;;5053165;28;20195;-76
2022/05/24 06:47:41;;;;;;;2.30;2.20;;;17.50;99.90;;;;;;5062049;28;20260;-76
2022/05/24 06:50:10;;;;;;;2.30;2.20;;;17.60;99.90;;;;;;5063502;28;20211;-76
2022/05/24 06:52:37;;;;;;;2.23;2.13;;;17.60;99.90;;;;;;5062192;28;20218;-76
2022/05/24 06:55:04;;;;;;;2.77;2.47;;;17.60;99.90;;;;;;5052603;28;20231;-76
2022/05/24 06:57:32;;;;;;;2.43;2.33;;;17.70;99.90;;;;;;5064165;28;20211;-76
2022/05/24 07:02:45;;;;;;;2.30;2.10;;;17.80;99.90;;;;;;5055323;28;20691;-76
2022/05/24 07:05:14;;;;;;;2.50;2.30;;;17.90;99.90;;;;;;5067433;28;20273;-76
2022/05/24 07:07:41;;;;;;;2.00;1.90;;;18.00;99.90;;;;;;5058975;28;20207;-76
2022/05/24 07:10:12;;;;;;;2.40;2.30;;;17.90;99.90;;;;;;5046896;28;20662;-75
2022/05/24 07:12:40;;;;;;;2.67;2.47;;;17.90;99.90;;;;;;5047629;28;20192;-75
2022/05/24 07:15:08;;;;;;;2.40;2.30;;;17.80;99.90;;;;;;5047256;28;20235;-76
2022/05/24 07:17:35;;;;;;;2.20;2.10;;;17.80;99.90;;;;;;5055740;28;20743;-76
2022/05/24 07:20:02;;;;;;;2.33;2.13;;;17.80;99.90;;;;;;5066593;28;20242;-75
2022/05/24 07:22:29;;;;;;;2.33;2.23;;;17.80;99.90;;;;;;5067132;28;20231;-75
2022/05/24 07:24:55;;;;;;;2.20;2.00;;;17.70;99.90;;;;;;5066625;28;20266;-76
2022/05/24 07:27:23;;;;;;;2.57;2.47;;;17.70;99.90;;;;;;5065735;28;20245;-76
2022/05/24 07:29:51;;;;;;;2.67;2.17;;;17.80;99.90;;;;;;5066926;28;20203;-76
2022/05/24 07:32:18;;;;;;;2.20;2.00;;;17.70;99.90;;;;;;5053826;28;20208;-76
2022/05/24 07:34:45;;;;;;;2.27;2.17;;;17.70;99.90;;;;;;5047649;28;20259;-76
2022/05/24 07:37:15;;;;;;;2.37;2.27;;;17.70;99.90;;;;;;5052297;28;20204;-76
2022/05/24 07:39:44;;;;;;;2.30;2.07;;;17.70;99.90;;;;;;5050405;28;20663;-76
2022/05/24 07:47:41;;;;;;;2.23;2.03;;;17.80;99.90;;;;;;5058003;28;20207;-76
2022/05/24 07:50:09;;;;;;;1.80;1.70;;;17.80;99.90;;;;;;5050427;28;20269;-74
2022/05/24 07:52:36;;;;;;;2.47;2.27;;;18.00;99.90;;;;;;5054496;28;20250;-74
2022/05/24 07:55:03;;;;;;;2.10;2.00;;;17.90;99.90;;;;;;5054708;28;20994;-75
2022/05/24 07:57:29;;;;;;;2.17;2.07;;;18.00;99.90;;;;;;5056197;28;20285;-74
2022/05/24 07:59:57;;;;;;;2.33;2.20;;;18.00;99.90;;;;;;5065036;28;20195;-74
2022/05/24 08:02:24;;;;;;;3.70;2.30;;;17.90;99.90;;;;;;5060086;28;20256;-74
2022/05/24 08:04:54;;;;;;;2.97;2.43;;;17.80;99.90;;;;;;5061452;28;20269;-74
2022/05/24 08:07:20;;;;;;;2.30;2.20;;;17.60;99.90;;;;;;5058761;28;20669;-75
2022/05/24 08:09:47;;;;;;;2.30;2.17;;;17.70;99.90;;;;;;5057369;28;20204;-75
2022/05/24 08:12:14;;;;;;;2.50;2.30;;;17.70;99.90;;;;;;5063234;28;20666;-75
2022/05/24 08:14:43;;;;;;;2.40;2.20;;;17.60;99.90;;;;;;5056984;28;20303;-76
2022/05/24 08:17:11;;;;;;;2.47;2.20;;;17.60;99.90;;;;;;5060390;28;20718;-75
2022/05/24 08:19:38;;;;;;;2.40;2.20;;;17.50;99.90;;;;;;5058554;28;20203;-76
2022/05/24 08:22:05;;;;;;;2.13;1.93;;;17.50;99.90;;;;;;5058628;28;20281;-75
2022/05/24 08:24:32;;;;;;;1.90;1.67;;;17.40;99.90;;;;;;5056221;28;20254;-76
2022/05/24 08:26:59;;;;;;;1.77;1.67;;;17.40;99.90;;;;;;5058522;28;20678;-76
2022/05/24 08:29:26;;;;;;;1.83;1.60;;;17.50;99.90;;;;;;5058371;28;20321;-76
2022/05/24 08:31:52;;;;;;;2.30;1.30;;;17.60;99.90;;;;;;5057626;28;20196;-76
2022/05/24 08:34:20;;;;;;;1.33;1.30;;;17.70;99.90;;;;;;5058513;28;20215;-75
2022/05/24 08:36:47;;;;;;;1.70;1.30;;;17.80;99.90;;;;;;5059515;28;20596;-76
2022/05/24 08:39:14;;;;;;;1.40;1.30;;;17.80;99.90;;;;;;5058324;28;20196;-75
2022/05/24 08:41:54;;;;;;;1.27;1.27;;;18.00;99.90;;;;;;5057762;28;20240;-76
2022/05/24 08:50:02;;;;;;;1.43;1.30;;;18.30;99.90;;;;;;5056881;28;20203;-75
2022/05/24 08:52:34;;;;;;;1.50;1.40;;;18.40;99.90;;;;;;5056888;28;20184;-75
2022/05/24 08:55:00;;;;;;;1.70;1.20;;;18.50;99.90;;;;;;5056513;28;20219;-75
2022/05/24 08:57:39;;;;;;;1.30;1.20;;;18.60;99.90;;;;;;5059502;28;20930;-76
2022/05/24 09:00:08;;;;;;;1.37;1.27;;;18.80;99.90;;;;;;5059916;28;20420;-75
2022/05/24 09:02:45;;;;;;;2.70;1.20;;;18.70;99.90;;;;;;5058425;28;20205;-75
2022/05/24 09:05:19;;;;;;;1.20;1.10;;;18.80;99.90;;;;;;5057798;28;20192;-76
2022/05/24 09:07:55;;;;;;;1.23;1.23;;;18.90;99.90;;;;;;5056933;28;20202;-76
2022/05/24 09:10:25;;;;;;;2.77;1.10;;;18.90;99.90;;;;;;5057774;28;20187;-76
2022/05/24 09:13:08;;;;;;;1.47;0.90;;;19.10;99.90;;;;;;5049424;28;20281;-75
2022/05/24 09:15:42;;;;;;;1.00;1.00;;;19.00;99.90;;;;;;5048855;28;20212;-75
2022/05/24 09:18:20;;;;;;;1.00;1.00;;;19.00;99.90;;;;;;5068346;28;20202;-76
2022/05/24 09:20:49;;;;;;;1.07;1.00;;;19.00;99.90;;;;;;5068615;28;20207;-75
2022/05/24 09:23:21;;;;;;;0.83;0.83;;;19.10;99.90;;;;;;5068984;28;20683;-75
2022/05/24 09:25:59;;;;;;;2.90;1.10;;;19.20;99.90;;;;;;5051054;28;20204;-75
2022/05/24 09:28:44;;;;;;;1.37;1.20;;;19.30;99.90;;;;;;5055289;28;20245;-75
2022/05/24 09:31:13;;;;;;;0.90;0.90;;;19.40;99.90;;;;;;5061606;28;20614;-75
2022/05/24 09:33:42;;;;;;;1.03;1.03;;;19.50;99.90;;;;;;5068848;28;20207;-75
2022/05/24 09:36:09;;;;;;;1.00;1.00;;;19.50;99.90;;;;;;5068436;28;20694;-75
2022/05/24 09:38:38;;;;;;;1.30;1.30;;;19.50;99.90;;;;;;5068634;28;20211;-75
2022/05/24 09:41:15;;;;;;;1.47;1.37;;;19.60;99.90;;;;;;5067824;28;20235;-75
2022/05/24 09:43:42;;;;;;;1.00;1.00;;;19.80;99.90;;;;;;5061431;28;20192;-75
2022/05/24 09:46:13;;;;;;;0.90;0.90;;;20.00;99.90;;;;;;5068131;28;20207;-76
2022/05/24 09:48:54;;;;;;;1.20;1.03;;;19.90;99.90;;;;;;5068255;28;20207;-76
2022/05/24 09:51:27;;;;;;;1.67;1.10;;;19.70;99.90;;;;;;5052037;28;20187;-76
2022/05/24 09:53:56;;;;;;;1.00;1.00;;;19.90;99.90;;;;;;5058664;28;20249;-76
2022/05/24 09:56:25;;;;;;;1.10;1.10;;;20.20;99.90;;;;;;5057177;28;20695;-76
2022/05/24 09:58:55;;;;;;;1.13;1.13;;;20.30;99.90;;;;;;5055617;28;20539;-76
2022/05/24 10:01:37;;;;;;;32.20;3.10;;;20.20;99.90;;;;;;5056400;28;20195;-76
2022/05/24 10:04:14;;;;;;;1.43;1.20;;;20.20;99.90;;;;;;5056295;28;20199;-76
2022/05/24 10:06:50;;;;;;;1.17;0.90;;;20.20;99.90;;;;;;5048180;28;20208;-76
2022/05/24 10:09:41;;;;;;;2.87;2.60;;;20.40;99.90;;;;;;5047671;28;20188;-75
2022/05/24 10:12:16;;;;;;;1.70;1.60;;;20.50;99.90;;;;;;5055318;28;20628;-76
2022/05/24 10:14:52;;;;;;;1.90;1.20;;;20.50;99.90;;;;;;5055264;28;20215;-76
2022/05/24 10:17:28;;;;;;;1.10;1.10;;;20.70;99.90;;;;;;5055958;28;20685;-76
2022/05/24 10:20:03;;;;;;;1.57;1.10;;;20.60;99.90;;;;;;5058355;28;20607;-76
2022/05/24 10:22:42;;;;;;;1.03;1.03;;;20.70;99.90;;;;;;5054644;28;20200;-76
2022/05/24 10:25:15;;;;;;;1.33;1.23;;;20.90;99.90;;;;;;5046958;28;20200;-76
2022/05/24 10:27:50;;;;;;;1.20;1.20;;;21.00;99.90;;;;;;5048330;28;20253;-76
2022/05/24 10:30:20;;;;;;;3.60;1.00;;;21.10;99.90;;;;;;5055569;28;20261;-76
2022/05/24 10:39:12;;;;;;;1.27;0.93;;;21.00;99.90;;;;;;5057234;28;20211;-75
2022/05/24 10:41:52;;;;;;;1.40;0.87;;;21.10;99.90;;;;;;5051174;28;20235;-76
2022/05/24 10:44:25;;;;;;;1.00;1.00;;;21.30;99.90;;;;;;5061605;28;20191;-76
2022/05/24 10:46:59;;;;;;;1.07;1.07;;;21.50;99.90;;;;;;5067107;28;20211;-76
2022/05/24 10:49:32;;;;;;;0.97;0.97;;;21.60;99.90;;;;;;5062790;28;20219;-76
2022/05/24 10:52:03;;;;;;;1.20;1.10;;;21.60;99.90;;;;;;5056367;28;20278;-75
2022/05/24 10:54:41;;;;;;;0.80;0.80;;;21.60;99.90;;;;;;5060839;28;20184;-76
2022/05/24 10:57:12;;;;;;;1.63;1.00;;;21.70;99.90;;;;;;5058848;28;20475;-76
2022/05/24 10:59:52;;;;;;;0.80;0.80;;;22.00;99.90;;;;;;5047925;28;20203;-74
2022/05/24 11:02:29;;;;;;;0.97;0.73;;;21.90;99.90;;;;;;5052501;28;20200;-76
2022/05/24 11:05:04;;;;;;;1.10;1.00;;;21.80;99.90;;;;;;5056609;28;20195;-76
2022/05/24 11:07:34;;;;;;;1.43;1.00;;;22.00;99.90;;;;;;5056846;28;20248;-75
2022/05/24 11:10:10;;;;;;;1.20;1.08;;;22.20;99.90;;;;;;5054428;28;20268;-76
2022/05/24 11:12:43;;;;;;;0.90;0.90;;;22.30;99.90;;;;;;5053483;28;20233;-76
2022/05/24 11:15:16;;;;;;;1.27;1.17;;;22.40;99.90;;;;;;5056137;28;20198;-75
2022/05/24 11:17:42;;;;;;;0.70;0.70;;;22.40;99.90;;;;;;5064771;28;20222;-76
2022/05/24 11:20:12;;;;;;;0.70;0.70;;;22.60;99.90;;;;;;5055643;28;20990;-76
2022/05/24 11:22:42;;;;;;;0.75;0.70;;;22.70;99.90;;;;;;5060968;28;20204;-76
2022/05/24 11:25:19;;;;;;;1.02;0.90;;;22.40;99.90;;;;;;5059512;28;20204;-75
2022/05/24 11:27:50;;;;;;;0.90;0.90;;;22.30;99.90;;;;;;5059163;28;20806;-76
2022/05/24 11:30:19;;;;;;;0.90;0.90;;;22.00;99.90;;;;;;5059182;28;20196;-76
2022/05/24 11:32:50;;;;;;;0.80;0.80;;;22.00;99.90;;;;;;5058945;28;20200;-76
2022/05/24 11:35:27;;;;;;;0.63;0.63;;;21.90;99.90;;;;;;5057352;28;20193;-76
2022/05/24 11:37:56;;;;;;;2.10;0.93;;;21.70;99.90;;;;;;5050752;28;20315;-76
2022/05/24 11:40:34;;;;;;;1.00;1.00;;;21.70;99.90;;;;;;5051048;28;20246;-75
2022/05/24 11:43:01;;;;;;;0.80;0.80;;;21.80;99.90;;;;;;5050662;28;20553;-75
2022/05/24 11:46:00;;;;;;;0.90;0.90;;;21.80;99.90;;;;;;5053203;28;20204;-75
2022/05/24 11:48:48;;;;;;;0.93;0.93;;;21.80;99.90;;;;;;5067544;28;20207;-75
2022/05/24 11:51:37;;;;;;;0.90;0.90;;;21.70;99.90;;;;;;5051412;28;20219;-76
2022/05/24 11:54:07;;;;;;;0.90;0.90;;;21.70;99.90;;;;;;5050595;28;20196;-75
2022/05/24 11:56:38;;;;;;;0.80;0.80;;;21.70;99.90;;;;;;5051152;28;20263;-75
2022/05/24 11:59:11;;;;;;;1.90;0.80;;;21.60;99.90;;;;;;5050252;28;20565;-76
2022/05/24 12:01:55;;;;;;;1.33;0.83;;;21.60;99.90;;;;;;5050767;28;20193;-75
2022/05/24 12:10:52;;;;;;;0.90;0.90;;;21.50;99.90;;;;;;5070243;28;20191;-75
2022/05/24 12:13:51;;;;;;;1.10;1.10;;;21.40;99.90;;;;;;5030757;28;20219;-75
2022/05/24 12:16:42;;;;;;;1.13;0.90;;;21.30;99.90;;;;;;5055811;28;20270;-75
2022/05/24 12:19:11;;;;;;;0.93;0.90;;;21.30;99.90;;;;;;5052750;28;20199;-76
2022/05/24 12:21:52;;;;;;;1.20;1.10;;;21.30;99.90;;;;;;5069227;28;20212;-75
2022/05/24 12:24:34;;;;;;;0.87;0.80;;;21.20;99.90;;;;;;5050256;28;20266;-75
2022/05/24 12:27:21;;;;;;;2.83;1.10;;;21.20;99.90;;;;;;5049750;28;20709;-75
2022/05/24 12:29:53;;;;;;;1.60;1.50;;;21.20;99.90;;;;;;5050168;28;20193;-75
2022/05/24 12:32:23;;;;;;;2.07;1.27;;;21.20;99.90;;;;;;5050151;28;20288;-75
2022/05/24 12:34:50;;;;;;;1.97;1.87;;;21.20;99.90;;;;;;5049839;28;20212;-75
2022/05/24 12:37:23;;;;;;;3.13;1.20;;;21.20;99.90;;;;;;5063535;28;20223;-76
2022/05/24 12:40:08;;;;;;;10.77;2.37;;;21.20;99.90;;;;;;5059918;28;20203;-75
2022/05/24 12:42:34;;;;;;;2.80;1.30;;;21.30;99.90;;;;;;5059731;28;20239;-76
2022/05/24 12:45:06;;;;;;;1.37;1.27;;;21.30;99.90;;;;;;5057514;28;20227;-75
2022/05/24 12:47:33;;;;;;;1.17;1.17;;;21.30;99.90;;;;;;5058905;28;20200;-75
2022/05/24 12:50:00;;;;;;;1.20;1.20;;;21.30;99.90;;;;;;5054768;28;20291;-75
2022/05/24 12:52:29;;;;;;;1.63;1.20;;;21.30;99.90;;;;;;5054663;28;20580;-75
2022/05/24 12:54:57;;;;;;;1.77;1.47;;;21.30;99.90;;;;;;5056413;28;20220;-75
2022/05/24 12:57:28;;;;;;;1.73;1.60;;;21.40;99.90;;;;;;5057095;28;20228;-76
2022/05/24 12:59:57;;;;;;;1.50;1.40;;;21.40;99.90;;;;;;5059370;28;20250;-76
2022/05/24 13:02:31;;;;;;;1.67;1.30;;;21.60;99.90;;;;;;5057228;28;20211;-76
2022/05/24 13:05:02;;;;;;;1.77;1.70;;;22.00;99.90;;;;;;5062385;28;20207;-76
2022/05/24 13:07:39;;;;;;;1.73;1.63;;;22.30;99.90;;;;;;5048660;28;20803;-76
2022/05/24 13:10:13;;;;;;;1.50;1.40;;;22.60;99.90;;;;;;5055119;28;20200;-76
2022/05/24 13:12:41;;;;;;;1.52;1.42;;;23.10;99.90;;;;;;5057667;28;20195;-76
2022/05/24 13:15:11;;;;;;;2.65;1.58;;;23.20;99.90;;;;;;5059085;28;20203;-76
2022/05/24 13:17:42;;;;;;;2.22;1.73;;;22.90;99.90;;;;;;5057285;28;20285;-76
2022/05/24 13:20:11;;;;;;;5.43;1.70;;;22.80;99.90;;;;;;5056751;28;20582;-76
2022/05/24 13:22:45;;;;;;;1.70;1.60;;;22.30;99.90;;;;;;5054690;28;20203;-76
2022/05/24 13:25:16;;;;;;;4.47;1.80;;;22.00;99.90;;;;;;5057877;28;20204;-76
2022/05/24 13:27:53;;;;;;;2.57;1.83;;;21.80;99.90;;;;;;5055011;28;20199;-76
2022/05/24 13:33:35;;;;;;;1.90;1.80;;;21.50;99.90;;;;;;5056994;28;20190;-76
2022/05/24 13:36:32;;;;;;;3.47;1.40;;;21.30;99.90;;;;;;5059312;28;20202;-76
2022/05/24 13:39:17;;;;;;;2.33;2.13;;;21.40;99.90;;;;;;5014797;28;20259;-76
2022/05/24 13:41:53;;;;;;;2.87;2.30;;;21.20;99.90;;;;;;5052365;28;20238;-76
2022/05/24 13:44:28;;;;;;;3.13;2.93;;;21.10;99.90;;;;;;5055375;28;20258;-76
2022/05/24 13:46:59;;;;;;;2.30;2.10;;;20.90;99.90;;;;;;5052115;28;20298;-76
2022/05/24 13:49:30;;;;;;;2.03;1.93;;;20.70;99.90;;;;;;5058857;28;20250;-75
2022/05/24 13:52:19;;;;;;;2.17;1.97;;;20.60;99.90;;;;;;5057569;28;20200;-76
2022/05/24 13:54:47;;;;;;;2.03;1.93;;;20.00;99.90;;;;;;5045233;28;20227;-76